createdAt,value
2018-06-25T00:00:06.603Z,94350.75
2018-06-25T00:02:37.662Z,94348.55
2018-06-25T00:05:06.925Z,94354.33
2018-06-25T00:07:36.598Z,94354.89
2018-06-25T00:10:06.593Z,94357.45
2018-06-25T00:12:38.593Z,94357.17
2018-06-25T00:15:08.104Z,94360.28
2018-06-25T00:17:38.384Z,94356.48
2018-06-25T00:20:09.624Z,94349.80
2018-06-25T00:22:39.043Z,94353.98
2018-06-25T00:25:08.996Z,94356.20
2018-06-25T00:27:39.707Z,94353.14
2018-06-25T00:30:09.196Z,94358.13
2018-06-25T00:32:38.640Z,94351.19
2018-06-25T00:35:08.045Z,94353.05
2018-06-25T00:37:38.501Z,94352.31
2018-06-25T00:40:08.298Z,94349.88
2018-06-25T00:42:37.633Z,94343.16
2018-06-25T00:45:06.862Z,94349.52
2018-06-25T00:47:37.112Z,94350.75
2018-06-25T00:50:09.151Z,94348.30
2018-06-25T00:52:39.684Z,94350.89
2018-06-25T00:55:10.488Z,94344.03
2018-06-25T00:57:39.915Z,94342.95
2018-06-25T01:00:09.130Z,94341.77
2018-06-25T01:02:38.984Z,94345.45
2018-06-25T01:05:08.287Z,94341.66
2018-06-25T01:07:37.756Z,94334.08
2018-06-25T01:10:08.282Z,94335.70
2018-06-25T01:12:38.018Z,94328.67
2018-06-25T01:15:08.567Z,94325.38
2018-06-25T01:17:38.578Z,94325.27
2018-06-25T01:20:07.832Z,94326.06
2018-06-25T01:22:37.295Z,94326.97
2018-06-25T01:25:06.652Z,94325.52
2018-06-25T01:27:36.160Z,94329.01
2018-06-25T01:30:06.584Z,94323.23
2018-06-25T01:32:38.348Z,94323.45
2018-06-25T01:35:08.502Z,94326.97
2018-06-25T01:37:37.879Z,94321.35
2018-06-25T01:40:07.538Z,94324.64
2018-06-25T01:42:37.158Z,94318.06
2018-06-25T01:45:08.043Z,94314.83
2018-06-25T01:47:37.342Z,94319.82
2018-06-25T01:50:07.019Z,94311.97
2018-06-25T01:52:37.172Z,94309.16
2018-06-25T01:55:07.995Z,94306.84
2018-06-25T01:57:37.440Z,94305.25
2018-06-25T02:00:08.060Z,94305.67
2018-06-25T02:02:37.403Z,94304.69
2018-06-25T02:05:06.891Z,94300.14
2018-06-25T02:07:37.673Z,94300.43
2018-06-25T02:10:07.072Z,94300.43
2018-06-25T02:12:36.477Z,94301.91
2018-06-25T02:15:06.947Z,94300.75
2018-06-25T02:17:37.175Z,94301.42
2018-06-25T02:20:06.980Z,94293.60
2018-06-25T02:22:36.557Z,94303.30
2018-06-25T02:25:06.387Z,94304.77
2018-06-25T02:27:35.793Z,94314.63
2018-06-25T02:30:06.909Z,94312.64
2018-06-25T02:32:36.199Z,94311.08
2018-06-25T02:35:05.833Z,94315.89
2018-06-25T02:37:35.944Z,94318.95
2018-06-25T02:40:06.107Z,94319.45
2018-06-25T02:42:35.377Z,94324.15
2018-06-25T02:45:04.665Z,94331.02
2018-06-25T02:47:34.916Z,94323.02
2018-06-25T02:50:04.929Z,94327.27
2018-06-25T02:52:34.441Z,94329.48
2018-06-25T02:55:04.622Z,94329.83
2018-06-25T02:57:34.000Z,94327.46
2018-06-25T03:00:04.582Z,94328.03
2018-06-25T03:02:33.997Z,94327.46
2018-06-25T03:05:03.250Z,94332.45
2018-06-25T03:07:32.720Z,94326.89
2018-06-25T03:10:02.843Z,94335.20
2018-06-25T03:12:32.293Z,94333.23
2018-06-25T03:15:05.377Z,94336.30
2018-06-25T03:17:34.640Z,94338.22
2018-06-25T03:20:06.898Z,94329.98
2018-06-25T03:22:39.322Z,94331.77
2018-06-25T03:25:08.744Z,94343.59
2018-06-25T03:27:38.168Z,94344.55
2018-06-25T03:30:08.354Z,94344.30
2018-06-25T03:32:37.781Z,94350.07
2018-06-25T03:35:07.122Z,94345.42
2018-06-25T03:37:36.295Z,94349.00
2018-06-25T03:40:06.266Z,94355.39
2018-06-25T03:42:36.858Z,94352.43
2018-06-25T03:45:06.561Z,94359.87
2018-06-25T03:47:35.977Z,94358.50
2018-06-25T03:50:06.243Z,94360.31
2018-06-25T03:52:36.275Z,94357.58
2018-06-25T03:55:05.958Z,94367.78
2018-06-25T03:57:35.290Z,94368.55
2018-06-25T04:00:05.464Z,94366.48
2018-06-25T04:02:34.992Z,94372.39
2018-06-25T04:05:04.295Z,94376.46
2018-06-25T04:07:33.680Z,94375.73
2018-06-25T04:10:02.946Z,94374.88
2018-06-25T04:12:33.501Z,94382.47
2018-06-25T04:15:04.454Z,94380.97
2018-06-25T04:17:35.165Z,94387.13
2018-06-25T04:20:05.411Z,94392.92
2018-06-25T04:22:35.576Z,94383.73
2018-06-25T04:25:05.276Z,94390.35
2018-06-25T04:27:34.744Z,94394.64
2018-06-25T04:30:04.274Z,94400.87
2018-06-25T04:32:33.521Z,94399.72
2018-06-25T04:35:03.005Z,94402.95
2018-06-25T04:37:33.541Z,94409.05
2018-06-25T04:40:05.290Z,94413.39
2018-06-25T04:42:35.878Z,94412.73
2018-06-25T04:45:05.630Z,94425.25
2018-06-25T04:47:35.777Z,94416.93
2018-06-25T04:50:05.251Z,94417.89
2018-06-25T04:52:36.090Z,94424.23
2018-06-25T04:55:05.494Z,94420.17
2018-06-25T04:57:34.938Z,94421.63
2018-06-25T05:00:04.383Z,94429.67
2018-06-25T05:02:34.525Z,94437.13
2018-06-25T05:05:04.760Z,94431.56
2018-06-25T05:07:34.211Z,94431.27
2018-06-25T05:10:03.629Z,94430.59
2018-06-25T05:12:33.711Z,94437.17
2018-06-25T05:15:03.016Z,94430.52
2018-06-25T05:17:32.478Z,94438.95
2018-06-25T05:20:01.918Z,94440.39
2018-06-25T05:22:31.529Z,94435.63
2018-06-25T05:25:01.026Z,94441.66
2018-06-25T05:27:31.406Z,94443.91
2018-06-25T05:30:01.733Z,94448.72
2018-06-25T05:32:31.406Z,94444.13
2018-06-25T05:35:00.664Z,94446.72
2018-06-25T05:37:30.234Z,94450.23
2018-06-25T05:39:59.795Z,94448.39
2018-06-25T05:42:29.274Z,94454.83
2018-06-25T05:44:58.824Z,94454.35
2018-06-25T05:47:28.768Z,94461.63
2018-06-25T05:49:58.154Z,94461.20
2018-06-25T05:52:27.666Z,94458.91
2018-06-25T05:54:58.288Z,94470.70
2018-06-25T05:57:28.374Z,94472.38
2018-06-25T05:59:57.658Z,94474.80
2018-06-25T06:02:28.132Z,94471.03
2018-06-25T06:04:57.629Z,94473.14
2018-06-25T06:07:27.491Z,94482.71
2018-06-25T06:09:57.027Z,94482.93
2018-06-25T06:12:27.670Z,94478.41
2018-06-25T06:14:56.975Z,94485.97
2018-06-25T06:17:26.515Z,94480.44
2018-06-25T06:19:55.947Z,94491.03
2018-06-25T06:22:27.288Z,94493.05
2018-06-25T06:24:57.746Z,94487.17
2018-06-25T06:27:27.585Z,94491.66
2018-06-25T06:29:57.034Z,94491.53
2018-06-25T06:32:27.537Z,94495.73
2018-06-25T06:34:58.096Z,94492.91
2018-06-25T06:37:28.803Z,94501.01
2018-06-25T06:39:58.351Z,94499.54
2018-06-25T06:42:27.787Z,94507.94
2018-06-25T06:44:56.997Z,94504.83
2018-06-25T06:47:26.437Z,94502.86
2018-06-25T06:49:56.778Z,94506.44
2018-06-25T06:52:26.851Z,94509.12
2018-06-25T06:54:56.303Z,94504.17
2018-06-25T06:57:26.326Z,94510.75
2018-06-25T06:59:55.778Z,94512.44
2018-06-25T07:02:25.106Z,94514.75
2018-06-25T07:04:54.559Z,94511.13
2018-06-25T07:07:23.892Z,94508.92
2018-06-25T07:09:53.423Z,94511.42
2018-06-25T07:12:24.072Z,94515.52
2018-06-25T07:14:55.202Z,94518.52
2018-06-25T07:17:24.997Z,94517.00
2018-06-25T07:19:54.448Z,94518.95
2018-06-25T07:22:23.718Z,94514.88
2018-06-25T07:24:53.182Z,94515.53
2018-06-25T07:27:23.311Z,94519.09
2018-06-25T07:29:53.585Z,94517.99
2018-06-25T07:32:23.023Z,94519.05
2018-06-25T07:34:52.343Z,94517.75
2018-06-25T07:37:22.538Z,94514.02
2018-06-25T07:39:53.089Z,94516.38
2018-06-25T07:42:23.733Z,94518.94
2018-06-25T07:44:54.477Z,94516.84
2018-06-25T07:47:23.979Z,94519.73
2018-06-25T07:49:54.337Z,94522.64
2018-06-25T07:52:24.707Z,94521.03
2018-06-25T07:54:54.580Z,94525.20
2018-06-25T07:57:26.829Z,94525.77
2018-06-25T07:59:57.424Z,94525.33
2018-06-25T08:02:28.603Z,94525.85
2018-06-25T08:04:58.048Z,94520.97
2018-06-25T08:07:27.314Z,94528.50
2018-06-25T08:09:57.071Z,94525.25
2018-06-25T08:12:26.472Z,94523.16
2018-06-25T08:14:55.926Z,94518.94
2018-06-25T08:17:25.340Z,94519.67
2018-06-25T08:19:55.157Z,94525.78
2018-06-25T08:22:24.656Z,94529.83
2018-06-25T08:24:54.218Z,94529.58
2018-06-25T08:27:23.583Z,94528.39
2018-06-25T08:29:52.906Z,94532.44
2018-06-25T08:32:22.367Z,94526.34
2018-06-25T08:34:51.687Z,94527.00
2018-06-25T08:37:21.104Z,94523.95
2018-06-25T08:39:50.489Z,94525.12
2018-06-25T08:42:20.908Z,94529.22
2018-06-25T08:44:50.201Z,94529.02
2018-06-25T08:47:19.542Z,94529.97
2018-06-25T08:49:48.786Z,94521.91
2018-06-25T08:52:18.530Z,94530.92
2018-06-25T08:54:47.923Z,94530.03
2018-06-25T08:57:17.240Z,94530.82
2018-06-25T08:59:46.584Z,94542.44
2018-06-25T09:02:15.906Z,94534.92
2018-06-25T09:04:45.127Z,94532.20
2018-06-25T09:07:14.438Z,94528.57
2018-06-25T09:09:43.717Z,94534.18
2018-06-25T09:12:13.037Z,94528.87
2018-06-25T09:14:42.518Z,94527.71
2018-06-25T09:17:11.983Z,94537.02
2018-06-25T09:19:41.729Z,94533.09
2018-06-25T09:22:11.195Z,94542.02
2018-06-25T09:24:40.386Z,94541.59
2018-06-25T09:27:09.656Z,94543.72
2018-06-25T09:29:38.931Z,94543.27
2018-06-25T09:32:08.430Z,94546.81
2018-06-25T09:34:42.753Z,94545.14
2018-06-25T09:37:12.132Z,94556.16
2018-06-25T09:39:41.608Z,94551.69
2018-06-25T09:42:10.668Z,94556.58
2018-06-25T09:44:40.111Z,94554.35
2018-06-25T09:47:09.607Z,94563.59
2018-06-25T09:49:39.031Z,94566.37
2018-06-25T09:52:08.676Z,94566.36
2018-06-25T09:54:38.133Z,94564.58
2018-06-25T09:57:07.700Z,94571.09
2018-06-25T09:59:37.048Z,94567.05
2018-06-25T10:02:06.461Z,94567.89
2018-06-25T10:04:35.885Z,94568.91
2018-06-25T10:07:05.432Z,94573.30
2018-06-25T10:09:34.891Z,94579.41
2018-06-25T10:12:04.335Z,94579.13
2018-06-25T10:14:33.686Z,94580.38
2018-06-25T10:17:03.062Z,94580.09
2018-06-25T10:19:32.744Z,94582.26
2018-06-25T10:22:02.273Z,94584.19
2018-06-25T10:24:31.750Z,94585.64
2018-06-25T10:27:00.705Z,94595.73
2018-06-25T10:29:29.949Z,94591.21
2018-06-25T10:31:59.422Z,94589.77
2018-06-25T10:34:28.769Z,94587.38
2018-06-25T10:36:58.196Z,94586.80
2018-06-25T10:39:27.916Z,94578.09
2018-06-25T10:41:57.272Z,94580.44
2018-06-25T10:44:26.643Z,94592.37
2018-06-25T10:46:56.179Z,94596.92
2018-06-25T10:49:25.612Z,94594.14
2018-06-25T10:51:54.884Z,94585.67
2018-06-25T10:54:24.239Z,94592.13
2018-06-25T10:56:53.539Z,94596.94
2018-06-25T10:59:22.965Z,94599.74
2018-06-25T11:01:52.220Z,94589.14
2018-06-25T11:04:22.006Z,94585.48
2018-06-25T11:06:51.345Z,94587.29
2018-06-25T11:09:20.610Z,94583.14
2018-06-25T11:11:50.145Z,94591.38
2018-06-25T11:14:19.875Z,94586.11
2018-06-25T11:16:49.637Z,94590.41
2018-06-25T11:19:18.981Z,94587.61
2018-06-25T11:21:48.481Z,94583.13
2018-06-25T11:24:17.784Z,94586.31
2018-06-25T11:26:47.185Z,94589.72
2018-06-25T11:29:16.516Z,94592.38
2018-06-25T11:31:46.260Z,94589.56
2018-06-25T11:34:15.813Z,94594.30
2018-06-25T11:36:45.166Z,94588.59
2018-06-25T11:39:14.823Z,94589.57
2018-06-25T11:41:44.008Z,94588.26
2018-06-25T11:44:13.175Z,94583.23
2018-06-25T11:46:42.334Z,94594.98
2018-06-25T11:49:13.090Z,94589.69
2018-06-25T11:51:42.241Z,94595.67
2018-06-25T11:54:12.129Z,94598.45
2018-06-25T11:56:41.128Z,94586.06
2018-06-25T11:59:10.465Z,94592.84
2018-06-25T12:01:39.634Z,94590.70
2018-06-25T12:04:08.973Z,94587.47
2018-06-25T12:06:38.374Z,94587.55
2018-06-25T12:09:09.120Z,94584.09
2018-06-25T12:11:38.262Z,94589.52
2018-06-25T12:14:07.586Z,94588.45
2018-06-25T12:16:37.034Z,94584.14
2018-06-25T12:19:06.284Z,94581.11
2018-06-25T12:21:35.402Z,94588.87
2018-06-25T12:24:04.536Z,94589.19
2018-06-25T12:26:35.512Z,94591.97
2018-06-25T12:29:05.228Z,94585.98
2018-06-25T12:31:34.750Z,94587.58
2018-06-25T12:34:04.096Z,94589.42
2018-06-25T12:36:35.593Z,94594.17
2018-06-25T12:39:07.829Z,94595.81
2018-06-25T12:41:37.277Z,94590.59
2018-06-25T12:44:09.328Z,94596.45
2018-06-25T12:46:39.447Z,94598.22
2018-06-25T12:49:09.437Z,94602.91
2018-06-25T12:51:38.581Z,94606.23
2018-06-25T12:54:07.759Z,94607.82
2018-06-25T12:56:37.929Z,94607.22
2018-06-25T12:59:09.212Z,94614.97
2018-06-25T13:01:39.424Z,94617.75
2018-06-25T13:04:08.830Z,94613.37
2018-06-25T13:06:38.758Z,94615.20
2018-06-25T13:09:10.104Z,94611.55
2018-06-25T13:11:39.362Z,94616.73
2018-06-25T13:14:10.937Z,94621.34
2018-06-25T13:16:41.883Z,94619.33
2018-06-25T13:19:11.948Z,94613.63
2018-06-25T13:21:41.170Z,94619.62
2018-06-25T13:24:12.397Z,94621.82
2018-06-25T13:26:41.487Z,94624.02
2018-06-25T13:29:10.526Z,94623.44
2018-06-25T13:31:40.397Z,94621.56
2018-06-25T13:34:09.490Z,94625.30
2018-06-25T13:36:38.564Z,94628.55
2018-06-25T13:39:09.170Z,94628.30
2018-06-25T13:41:40.315Z,94629.30
2018-06-25T13:44:09.363Z,94629.45
2018-06-25T13:46:38.661Z,94624.70
2018-06-25T13:49:07.738Z,94631.27
2018-06-25T13:51:37.921Z,94633.61
2018-06-25T13:54:07.523Z,94635.95
2018-06-25T13:56:36.920Z,94639.46
2018-06-25T13:59:06.506Z,94638.41
2018-06-25T14:01:35.590Z,94637.33
2018-06-25T14:04:05.781Z,94635.84
2018-06-25T14:06:36.890Z,94637.27
2018-06-25T14:09:10.506Z,94633.47
2018-06-25T14:11:40.314Z,94639.45
2018-06-25T14:14:09.680Z,94635.39
2018-06-25T14:16:39.551Z,94632.97
2018-06-25T14:19:08.889Z,94639.80
2018-06-25T14:21:39.068Z,94637.69
2018-06-25T14:24:13.660Z,94640.45
2018-06-25T14:26:45.198Z,94641.00
2018-06-25T14:29:19.354Z,94637.87
2018-06-25T14:31:48.889Z,94640.39
2018-06-25T14:34:23.082Z,94644.48
2018-06-25T14:36:52.267Z,94643.37
2018-06-25T14:39:21.574Z,94647.48
2018-06-25T14:41:51.695Z,94647.48
2018-06-25T14:44:21.029Z,94650.69
2018-06-25T14:46:50.359Z,94646.48
2018-06-25T14:49:20.394Z,94654.06
2018-06-25T14:51:49.812Z,94652.08
2018-06-25T14:54:20.041Z,94652.28
2018-06-25T14:56:49.061Z,94650.66
2018-06-25T14:59:18.927Z,94654.31
2018-06-25T15:01:47.951Z,94651.58
2018-06-25T15:04:17.393Z,94654.77
2018-06-25T15:06:46.995Z,94656.17
2018-06-25T15:09:16.362Z,94655.31
2018-06-25T15:11:45.882Z,94658.87
2018-06-25T15:14:15.403Z,94657.89
2018-06-25T15:16:44.719Z,94653.80
2018-06-25T15:19:13.958Z,94654.23
2018-06-25T15:21:43.292Z,94650.90
2018-06-25T15:24:13.797Z,94649.31
2018-06-25T15:26:43.302Z,94651.02
2018-06-25T15:29:12.723Z,94651.06
2018-06-25T15:31:42.109Z,94652.41
2018-06-25T15:34:11.490Z,94654.52
2018-06-25T15:36:40.943Z,94651.92
2018-06-25T15:39:11.475Z,94646.55
2018-06-25T15:41:41.163Z,94646.88
2018-06-25T15:44:10.490Z,94651.89
2018-06-25T15:46:39.901Z,94655.10
2018-06-25T15:49:09.321Z,94648.66
2018-06-25T15:51:40.076Z,94650.87
2018-06-25T15:54:09.639Z,94647.92
2018-06-25T15:56:39.053Z,94647.55
2018-06-25T15:59:09.696Z,94644.79
2018-06-25T16:01:39.261Z,94647.88
2018-06-25T16:04:08.900Z,94652.60
2018-06-25T16:06:38.518Z,94646.12
2018-06-25T16:09:08.081Z,94638.81
2018-06-25T16:11:38.459Z,94642.95
2018-06-25T16:14:07.973Z,94648.88
2018-06-25T16:16:37.658Z,94647.04
2018-06-25T16:19:07.875Z,94643.70
2018-06-25T16:21:37.814Z,94644.03
2018-06-25T16:24:07.184Z,94647.56
2018-06-25T16:26:38.386Z,94637.03
2018-06-25T16:29:07.962Z,94643.03
2018-06-25T16:31:39.923Z,94645.09
2018-06-25T16:34:09.544Z,94648.19
2018-06-25T16:36:40.730Z,94641.92
2018-06-25T16:39:11.875Z,94638.54
2018-06-25T16:41:42.237Z,94642.27
2018-06-25T16:44:11.499Z,94646.59
2018-06-25T16:46:42.518Z,94641.91
2018-06-25T16:49:16.251Z,94640.55
2018-06-25T16:51:45.818Z,94647.64
2018-06-25T16:54:15.979Z,94653.88
2018-06-25T16:56:46.408Z,94643.70
2018-06-25T16:59:17.195Z,94643.03
2018-06-25T17:01:46.696Z,94634.09
2018-06-25T17:04:17.052Z,94637.16
2018-06-25T17:06:48.737Z,94630.91
2018-06-25T17:09:18.205Z,94639.17
2018-06-25T17:11:50.322Z,94637.70
2018-06-25T17:14:20.858Z,94633.16
2018-06-25T17:16:50.417Z,94631.83
2018-06-25T17:19:22.962Z,94635.42
2018-06-25T17:21:53.877Z,94645.63
2018-06-25T17:24:24.131Z,94640.67
2018-06-25T17:26:53.665Z,94637.09
2018-06-25T17:29:24.667Z,94639.27
2018-06-25T17:31:54.003Z,94645.25
2018-06-25T17:34:23.193Z,94645.41
2018-06-25T17:36:52.391Z,94649.57
2018-06-25T17:39:21.509Z,94651.83
2018-06-25T17:41:50.854Z,94649.72
2018-06-25T17:44:20.091Z,94651.31
2018-06-25T17:46:52.450Z,94652.44
2018-06-25T17:49:21.541Z,94656.09
2018-06-25T17:51:51.738Z,94651.07
2018-06-25T17:54:21.900Z,94645.17
2018-06-25T17:56:52.449Z,94648.59
2018-06-25T17:59:22.545Z,94657.13
2018-06-25T18:01:54.838Z,94661.19
2018-06-25T18:04:26.809Z,94655.67
2018-06-25T18:06:57.212Z,94659.88
2018-06-25T18:09:26.635Z,94661.23
2018-06-25T18:11:57.850Z,94657.41
2018-06-25T18:14:29.084Z,94661.42
2018-06-25T18:16:59.302Z,94666.42
2018-06-25T18:19:29.111Z,94666.82
2018-06-25T18:21:58.719Z,94667.27
2018-06-25T18:24:30.581Z,94669.84
2018-06-25T18:27:01.547Z,94669.23
2018-06-25T18:29:31.720Z,94668.48
2018-06-25T18:32:01.327Z,94669.75
2018-06-25T18:34:30.993Z,94675.78
2018-06-25T18:37:01.450Z,94683.22
2018-06-25T18:39:31.195Z,94684.08
2018-06-25T18:42:01.799Z,94681.86
2018-06-25T18:44:31.682Z,94695.30
2018-06-25T18:47:01.565Z,94689.67
2018-06-25T18:49:31.509Z,94694.90
2018-06-25T18:52:01.057Z,94690.78
2018-06-25T18:54:30.915Z,94684.53
2018-06-25T18:57:01.405Z,94686.58
2018-06-25T18:59:30.747Z,94693.94
2018-06-25T19:02:00.740Z,94694.97
2018-06-25T19:04:31.944Z,94697.95
2018-06-25T19:07:02.428Z,94699.94
2018-06-25T19:09:32.932Z,94707.20
2018-06-25T19:12:03.418Z,94709.38
2018-06-25T19:14:35.902Z,94707.69
2018-06-25T19:17:07.191Z,94709.90
2018-06-25T19:19:37.588Z,94716.16
2018-06-25T19:22:07.487Z,94719.34
2018-06-25T19:24:38.810Z,94725.63
2018-06-25T19:27:09.338Z,94724.32
2018-06-25T19:29:40.345Z,94731.55
2018-06-25T19:32:11.001Z,94724.20
2018-06-25T19:34:40.600Z,94728.53
2018-06-25T19:37:10.558Z,94735.64
2018-06-25T19:39:42.030Z,94732.84
2018-06-25T19:42:11.592Z,94741.47
2018-06-25T19:44:41.552Z,94739.72
2018-06-25T19:47:12.028Z,94735.32
2018-06-25T19:49:41.637Z,94735.23
2018-06-25T19:52:12.896Z,94735.80
2018-06-25T19:54:42.431Z,94739.43
2018-06-25T19:57:13.193Z,94745.96
2018-06-25T19:59:42.617Z,94750.58
2018-06-25T20:02:12.026Z,94748.67
2018-06-25T20:04:41.655Z,94753.88
2018-06-25T20:07:11.169Z,94757.61
2018-06-25T20:09:42.586Z,94761.27
2018-06-25T20:12:12.339Z,94760.41
2018-06-25T20:14:42.270Z,94755.98
2018-06-25T20:17:11.699Z,94759.90
2018-06-25T20:19:42.951Z,94763.47
2018-06-25T20:22:12.764Z,94754.89
2018-06-25T20:24:42.978Z,94764.28
2018-06-25T20:27:13.349Z,94771.15
2018-06-25T20:29:44.283Z,94771.58
2018-06-25T20:32:15.629Z,94773.17
2018-06-25T20:34:45.699Z,94772.95
2018-06-25T20:37:15.000Z,94776.52
2018-06-25T20:39:44.358Z,94779.55
2018-06-25T20:42:15.320Z,94779.77
2018-06-25T20:44:45.426Z,94775.27
2018-06-25T20:47:14.798Z,94780.56
2018-06-25T20:49:44.412Z,94774.63
2018-06-25T20:52:14.727Z,94770.78
2018-06-25T20:54:45.166Z,94775.46
2018-06-25T20:57:15.656Z,94775.68
2018-06-25T20:59:45.387Z,94779.42
2018-06-25T21:02:15.039Z,94789.86
2018-06-25T21:04:44.835Z,94780.80
2018-06-25T21:07:15.442Z,94781.70
2018-06-25T21:09:46.629Z,94780.39
2018-06-25T21:12:16.866Z,94784.59
2018-06-25T21:14:47.490Z,94788.23
2018-06-25T21:17:16.945Z,94787.21
2018-06-25T21:19:47.518Z,94787.57
2018-06-25T21:22:17.422Z,94784.16
2018-06-25T21:24:47.772Z,94794.24
2018-06-25T21:27:17.247Z,94790.55
2018-06-25T21:29:47.728Z,94794.75
2018-06-25T21:32:17.838Z,94800.83
2018-06-25T21:34:47.169Z,94800.76
2018-06-25T21:37:16.475Z,94792.42
2018-06-25T21:39:45.910Z,94791.05
2018-06-25T21:42:15.512Z,94792.28
2018-06-25T21:44:45.103Z,94785.69
2018-06-25T21:47:16.110Z,94793.08
2018-06-25T21:49:45.707Z,94794.89
2018-06-25T21:52:15.837Z,94801.41
2018-06-25T21:54:46.018Z,94798.23
2018-06-25T21:57:16.409Z,94799.49
2018-06-25T21:59:45.656Z,94792.28
2018-06-25T22:02:15.030Z,94796.34
2018-06-25T22:04:44.301Z,94798.22
2018-06-25T22:07:14.645Z,94797.86
2018-06-25T22:09:44.946Z,94792.48
2018-06-25T22:12:14.543Z,94795.31
2018-06-25T22:14:43.992Z,94792.70
2018-06-25T22:17:13.395Z,94787.58
2018-06-25T22:19:42.895Z,94785.92
2018-06-25T22:22:14.114Z,94780.70
2018-06-25T22:24:43.709Z,94774.73
2018-06-25T22:27:13.175Z,94778.23
2018-06-25T22:29:43.169Z,94777.58
2018-06-25T22:32:13.130Z,94776.72
2018-06-25T22:34:43.436Z,94775.19
2018-06-25T22:37:12.940Z,94777.94
2018-06-25T22:39:43.154Z,94770.25
2018-06-25T22:42:13.246Z,94766.22
2018-06-25T22:44:42.691Z,94770.27
2018-06-25T22:47:12.346Z,94773.94
2018-06-25T22:49:43.296Z,94768.81
2018-06-25T22:52:12.520Z,94771.61
2018-06-25T22:54:42.735Z,94771.40
2018-06-25T22:57:12.109Z,94774.22
2018-06-25T22:59:41.507Z,94773.58
2018-06-25T23:02:11.306Z,94775.02
2018-06-25T23:04:40.757Z,94774.67
2018-06-25T23:07:11.038Z,94774.01
2018-06-25T23:09:41.472Z,94777.79
2018-06-25T23:12:11.431Z,94779.94
2018-06-25T23:14:42.406Z,94781.11
2018-06-25T23:17:11.620Z,94780.66
2018-06-25T23:19:40.855Z,94783.27
2018-06-25T23:22:10.270Z,94779.14
2018-06-25T23:24:40.119Z,94784.22
2018-06-25T23:27:09.439Z,94784.83
2018-06-25T23:29:40.464Z,94781.83
2018-06-25T23:32:11.485Z,94782.47
2018-06-25T23:34:40.717Z,94782.94
2018-06-25T23:37:11.113Z,94782.59
2018-06-25T23:39:40.337Z,94782.59
2018-06-25T23:42:09.737Z,94781.30
2018-06-25T23:44:39.769Z,94778.81
2018-06-25T23:47:09.151Z,94777.17
2018-06-25T23:49:39.499Z,94776.16
2018-06-25T23:52:08.791Z,94782.93
2018-06-25T23:54:38.927Z,94777.09
2018-06-25T23:57:08.318Z,94772.30
2018-06-25T23:59:37.761Z,94767.67
